createdAt,value
2022-10-10T00:00:08.519Z,11.40
2022-10-10T00:02:35.117Z,11.30
2022-10-10T00:05:01.652Z,11.30
2022-10-10T00:07:28.601Z,11.30
2022-10-10T00:09:55.200Z,11.30
2022-10-10T00:12:21.720Z,11.20
2022-10-10T00:14:48.230Z,11.20
2022-10-10T00:17:14.785Z,11.10
2022-10-10T00:19:41.784Z,11.10
2022-10-10T00:22:08.322Z,11.10
2022-10-10T00:24:34.887Z,11.00
2022-10-10T00:27:01.404Z,11.10
2022-10-10T00:29:27.956Z,11.00
2022-10-10T00:31:54.807Z,11.00
2022-10-10T00:34:21.469Z,10.90
2022-10-10T00:36:47.993Z,10.90
2022-10-10T00:39:14.552Z,10.90
2022-10-10T00:41:41.093Z,10.80
2022-10-10T00:44:15.634Z,10.80
2022-10-10T00:46:42.520Z,10.80
2022-10-10T00:49:14.820Z,10.80
2022-10-10T00:51:43.498Z,10.70
2022-10-10T00:54:12.848Z,10.70
2022-10-10T00:56:48.308Z,10.60
2022-10-10T00:59:16.264Z,10.60
2022-10-10T01:01:43.069Z,10.60
2022-10-10T01:04:45.853Z,10.60
2022-10-10T01:07:29.898Z,10.60
2022-10-10T01:10:01.297Z,10.60
2022-10-10T01:12:37.849Z,10.60
2022-10-10T01:15:14.493Z,10.50
2022-10-10T01:17:47.500Z,10.50
2022-10-10T01:20:52.047Z,10.50
2022-10-10T01:23:58.326Z,10.50
2022-10-10T01:26:59.225Z,10.40
2022-10-10T01:29:55.846Z,10.30
2022-10-10T01:32:44.223Z,10.40
2022-10-10T01:35:36.819Z,10.40
2022-10-10T01:38:11.687Z,10.30
2022-10-10T01:41:29.326Z,10.30
2022-10-10T01:43:57.556Z,10.30
